Time;durP1;ratioP1;P1;durP2;ratioP2;P2;SDS_P1;SDS_P2;PMS_P1;PMS_P2;Temp;Humidity;BMP_temperature;BMP_pressure;BME280_temperature;BME280_humidity;BME280_pressure;Samples;Min_cycle;Max_cycle;Signal;HPM_P1;HPM_P2
2022/08/21 00:00:20;;;;;;;10.93;4.90;;;17.60;99.90;;;;;;4978038;28;20046;-59
2022/08/21 00:03:07;;;;;;;10.23;4.40;;;17.00;99.90;;;;;;4960703;28;20399;-60
2022/08/21 00:05:37;;;;;;;14.10;5.00;;;17.10;99.90;;;;;;4977615;28;20439;-60
2022/08/21 00:08:03;;;;;;;11.30;4.30;;;17.10;99.90;;;;;;4977220;28;20054;-60
2022/08/21 00:10:29;;;;;;;10.75;4.65;;;17.00;99.90;;;;;;4977790;28;20158;-60
2022/08/21 00:12:55;;;;;;;12.70;4.18;;;17.00;99.90;;;;;;4960592;28;20161;-60
2022/08/21 00:15:28;;;;;;;11.18;4.47;;;17.20;99.90;;;;;;4977448;28;20118;-60
2022/08/21 00:18:02;;;;;;;7.90;4.25;;;16.90;99.90;;;;;;4977662;28;20129;-59
2022/08/21 00:20:28;;;;;;;9.65;4.40;;;16.80;99.90;;;;;;4977612;28;20054;-60
2022/08/21 00:22:54;;;;;;;10.25;4.88;;;16.70;99.90;;;;;;4977146;28;20518;-59
2022/08/21 00:25:20;;;;;;;12.73;5.07;;;16.70;99.90;;;;;;4977300;28;20047;-59
2022/08/21 00:27:46;;;;;;;9.35;4.47;;;16.70;99.90;;;;;;4977410;28;20043;-59
2022/08/21 00:30:17;;;;;;;11.20;4.50;;;16.70;99.90;;;;;;4977420;28;20046;-59
2022/08/21 00:32:44;;;;;;;11.88;4.65;;;16.70;99.90;;;;;;4977343;28;20039;-60
2022/08/21 00:35:15;;;;;;;10.10;4.30;;;16.60;99.90;;;;;;4977224;28;20137;-60
2022/08/21 00:37:41;;;;;;;12.15;4.13;;;16.50;99.90;;;;;;4977420;28;20399;-59
2022/08/21 00:40:10;;;;;;;10.65;4.70;;;16.30;99.90;;;;;;4977237;28;20043;-59
2022/08/21 00:42:36;;;;;;;11.40;4.50;;;16.40;99.90;;;;;;4977185;28;20098;-59
2022/08/21 00:45:03;;;;;;;11.13;4.57;;;16.30;99.90;;;;;;4977053;28;20039;-60
2022/08/21 00:47:29;;;;;;;12.15;4.60;;;16.30;99.90;;;;;;4976983;28;20047;-60
2022/08/21 00:49:55;;;;;;;11.63;4.68;;;16.20;99.90;;;;;;4959681;28;20046;-61
2022/08/21 00:52:26;;;;;;;10.20;4.65;;;15.00;99.90;;;;;;4976847;28;20070;-61
2022/08/21 00:54:55;;;;;;;9.57;4.65;;;16.60;99.90;;;;;;4977132;28;20094;-61
2022/08/21 00:57:31;;;;;;;12.50;5.45;;;16.20;99.90;;;;;;4977066;28;20073;-60
2022/08/21 00:59:59;;;;;;;12.68;6.03;;;16.00;99.90;;;;;;4959487;28;20125;-62
2022/08/21 01:02:26;;;;;;;13.23;5.45;;;16.00;99.90;;;;;;4959725;28;20050;-60
2022/08/21 01:04:53;;;;;;;11.60;5.10;;;15.90;99.90;;;;;;4959349;28;20542;-60
2022/08/21 01:07:19;;;;;;;10.60;5.35;;;;;;;;;;4976687;28;20043;-61
2022/08/21 01:09:47;;;;;;;12.80;5.30;;;15.80;99.90;;;;;;4959543;28;20050;-60
2022/08/21 01:12:14;;;;;;;11.10;5.15;;;16.10;99.90;;;;;;4976648;28;20101;-60
2022/08/21 01:14:42;;;;;;;10.13;5.20;;;15.60;99.90;;;;;;4976493;28;20045;-60
2022/08/21 01:17:10;;;;;;;11.15;5.45;;;15.80;99.90;;;;;;4976303;28;20503;-60
2022/08/21 01:19:35;;;;;;;14.77;6.07;;;15.70;99.90;;;;;;4991378;28;20047;-60
2022/08/21 01:22:02;;;;;;;12.07;5.60;;;15.10;99.90;;;;;;4976355;28;20116;-60
2022/08/21 01:24:28;;;;;;;14.07;5.63;;;15.60;99.90;;;;;;4976493;28;20117;-60
2022/08/21 01:26:54;;;;;;;9.45;5.60;;;15.60;99.90;;;;;;4991287;28;20047;-60
2022/08/21 01:29:53;;;;;;;17.70;8.80;;;15.50;99.90;;;;;;4976711;28;20502;-60
2022/08/21 01:32:20;;;;;;;47.00;20.05;;;15.50;99.90;;;;;;4975310;28;20391;-60
2022/08/21 01:34:47;;;;;;;37.35;17.30;;;15.40;99.90;;;;;;4975880;28;20038;-60
2022/08/21 01:37:13;;;;;;;43.08;22.17;;;16.10;99.90;;;;;;4976158;28;20046;-60
2022/08/21 01:39:40;;;;;;;28.25;13.50;;;15.50;99.90;;;;;;4975846;28;20500;-60
2022/08/21 01:42:06;;;;;;;17.58;8.30;;;15.40;99.90;;;;;;4975968;28;20050;-60
2022/08/21 01:44:34;;;;;;;21.95;8.77;;;14.60;99.90;;;;;;4976112;28;20077;-60
2022/08/21 01:47:02;;;;;;;18.92;7.53;;;15.20;99.90;;;;;;4958733;28;20372;-60
2022/08/21 01:49:28;;;;;;;12.45;6.88;;;15.30;99.90;;;;;;4990825;28;20047;-60
2022/08/21 01:51:53;;;;;;;15.70;7.20;;;15.10;99.90;;;;;;4975904;28;20451;-60
2022/08/21 01:54:21;;;;;;;12.55;5.97;;;15.20;99.90;;;;;;4975718;28;20045;-60
2022/08/21 01:56:50;;;;;;;10.65;6.38;;;15.10;99.90;;;;;;4975603;28;20090;-60
2022/08/21 01:59:16;;;;;;;14.52;5.70;;;15.30;99.90;;;;;;4975933;28;20113;-60
2022/08/21 02:01:46;;;;;;;11.65;6.38;;;;;;;;;;4975725;28;20047;-59
2022/08/21 02:04:11;;;;;;;10.95;5.82;;;15.30;99.90;;;;;;4975787;28;20078;-60
2022/08/21 02:06:38;;;;;;;11.68;5.82;;;15.10;99.90;;;;;;4958202;28;20081;-60
2022/08/21 02:09:05;;;;;;;11.43;6.10;;;14.00;99.90;;;;;;4974867;28;20046;-59
2022/08/21 02:11:32;;;;;;;12.05;6.78;;;;;;;;;;4975746;28;20379;-60
2022/08/21 02:13:57;;;;;;;11.23;6.40;;;15.00;99.90;;;;;;4975612;28;20101;-60
2022/08/21 02:16:24;;;;;;;13.25;6.72;;;15.10;99.90;;;;;;4975376;28;20046;-60
2022/08/21 02:18:50;;;;;;;14.27;6.50;;;14.40;99.90;;;;;;4975395;28;20042;-60
2022/08/21 02:21:16;;;;;;;12.23;6.60;;;15.20;99.90;;;;;;4990544;28;20137;-60
2022/08/21 02:23:42;;;;;;;12.27;6.68;;;15.70;99.90;;;;;;4974848;28;20050;-60
2022/08/21 02:26:09;;;;;;;13.25;7.00;;;14.90;99.90;;;;;;4974106;28;20094;-59
2022/08/21 02:28:36;;;;;;;11.82;6.72;;;13.80;99.90;;;;;;4975356;28;20043;-60
2022/08/21 02:31:03;;;;;;;10.13;6.60;;;14.20;99.90;;;;;;4975263;28;20094;-57
2022/08/21 02:33:28;;;;;;;10.77;6.63;;;14.90;99.90;;;;;;4975182;28;20043;-58
2022/08/21 02:35:56;;;;;;;13.93;6.93;;;14.80;99.90;;;;;;4975234;28;20062;-58
2022/08/21 02:38:30;;;;;;;15.18;6.97;;;14.60;99.90;;;;;;4974859;28;20046;-60
2022/08/21 02:40:57;;;;;;;12.73;6.97;;;14.90;99.90;;;;;;4975216;28;20034;-58
2022/08/21 02:43:25;;;;;;;10.95;6.70;;;14.80;99.90;;;;;;4975053;28;20043;-58
2022/08/21 02:45:53;;;;;;;13.30;7.40;;;14.80;99.90;;;;;;4974710;28;20101;-58
2022/08/21 02:48:22;;;;;;;11.38;6.90;;;14.70;99.90;;;;;;4974846;28;20117;-58
2022/08/21 02:50:53;;;;;;;18.25;6.70;;;14.10;99.90;;;;;;4974610;28;20043;-58
2022/08/21 02:53:19;;;;;;;15.13;7.13;;;14.70;99.90;;;;;;4957514;28;20034;-58
2022/08/21 02:55:47;;;;;;;13.57;6.90;;;14.70;99.90;;;;;;4974703;28;20093;-58
2022/08/21 02:58:15;;;;;;;16.42;6.80;;;13.80;99.90;;;;;;4974190;28;20047;-58
2022/08/21 03:00:43;;;;;;;11.25;6.80;;;14.60;99.90;;;;;;4974702;28;20121;-58
2022/08/21 03:03:10;;;;;;;12.55;7.00;;;14.50;99.90;;;;;;4974399;28;20068;-58
2022/08/21 03:05:39;;;;;;;11.18;6.63;;;14.50;99.90;;;;;;4974790;28;20098;-58
2022/08/21 03:08:10;;;;;;;13.30;7.00;;;14.40;99.90;;;;;;4974651;28;20043;-58
2022/08/21 03:10:41;;;;;;;11.10;6.70;;;14.30;99.90;;;;;;4974681;28;20038;-58
2022/08/21 03:13:07;;;;;;;10.95;6.60;;;14.30;99.90;;;;;;4974377;28;20554;-58
2022/08/21 03:15:33;;;;;;;9.48;6.80;;;14.50;99.90;;;;;;4974471;28;20130;-58
2022/08/21 03:18:00;;;;;;;14.88;7.30;;;14.30;99.90;;;;;;4957033;28;20399;-58
2022/08/21 03:20:28;;;;;;;11.60;7.13;;;14.10;99.90;;;;;;4973697;28;20046;-59
2022/08/21 03:22:54;;;;;;;12.73;7.22;;;14.30;99.90;;;;;;4974325;28;20189;-59
2022/08/21 03:25:22;;;;;;;14.32;7.63;;;14.50;99.90;;;;;;4974439;28;20491;-58
2022/08/21 03:27:49;;;;;;;12.40;7.95;;;14.40;99.90;;;;;;4974256;28;20509;-58
2022/08/21 03:30:18;;;;;;;14.88;8.48;;;14.10;99.90;;;;;;4974160;28;20043;-58
2022/08/21 03:32:43;;;;;;;15.00;9.32;;;14.00;99.90;;;;;;4974085;28;20400;-58
2022/08/21 03:35:09;;;;;;;17.25;9.23;;;14.20;99.90;;;;;;4974472;28;20089;-58
2022/08/21 03:37:38;;;;;;;11.48;8.30;;;14.10;99.90;;;;;;4974386;28;20376;-58
2022/08/21 03:40:06;;;;;;;13.73;8.65;;;14.70;99.90;;;;;;4974275;28;20043;-58
2022/08/21 03:42:33;;;;;;;20.50;9.80;;;13.60;99.90;;;;;;4974118;28;20089;-58
2022/08/21 03:44:59;;;;;;;22.05;9.90;;;13.80;99.90;;;;;;4974030;28;20042;-58
2022/08/21 03:47:25;;;;;;;17.55;10.30;;;14.50;99.90;;;;;;4973982;28;20419;-58
2022/08/21 03:49:52;;;;;;;21.75;10.50;;;14.20;99.90;;;;;;4974169;28;20039;-58
2022/08/21 03:52:17;;;;;;;28.48;11.70;;;14.20;99.90;;;;;;4956689;28;20483;-59
2022/08/21 03:54:44;;;;;;;20.35;11.32;;;14.20;99.90;;;;;;4974125;28;20125;-58
2022/08/21 03:57:10;;;;;;;16.50;10.95;;;;;;;;;;4956725;28;20125;-58
2022/08/21 03:59:38;;;;;;;17.15;10.27;;;13.60;99.90;;;;;;4973626;28;20043;-58
2022/08/21 04:02:08;;;;;;;15.63;11.20;;;14.20;99.90;;;;;;4973953;28;20483;-58
2022/08/21 04:04:34;;;;;;;18.50;11.95;;;14.20;99.90;;;;;;4974159;28;20050;-59
2022/08/21 04:07:00;;;;;;;16.08;11.10;;;;;;;;;;4974077;28;20047;-59
2022/08/21 04:09:27;;;;;;;15.73;10.77;;;14.10;99.90;;;;;;4973936;28;20035;-58
2022/08/21 04:11:52;;;;;;;17.05;10.68;;;15.10;99.90;;;;;;4973710;28;20054;-58
2022/08/21 04:14:19;;;;;;;17.30;10.02;;;;;;;;;;4974120;28;20039;-58
2022/08/21 04:16:44;;;;;;;17.10;10.45;;;14.20;99.90;;;;;;4974029;28;20178;-58
2022/08/21 04:19:12;;;;;;;15.27;10.27;;;15.00;99.90;;;;;;4973854;28;20122;-58
2022/08/21 04:21:39;;;;;;;16.80;10.75;;;14.20;99.90;;;;;;4973936;28;20047;-59
2022/08/21 04:24:09;;;;;;;16.70;11.10;;;14.20;99.90;;;;;;4953203;29;20059;-58
2022/08/21 04:26:38;;;;;;;23.05;11.65;;;14.10;99.90;;;;;;4954361;28;20035;-58
2022/08/21 04:29:06;;;;;;;15.80;10.82;;;14.00;99.90;;;;;;4954372;28;20058;-58
2022/08/21 04:31:33;;;;;;;14.32;10.80;;;14.20;99.90;;;;;;4956287;28;20195;-58
2022/08/21 04:33:59;;;;;;;21.00;11.57;;;14.00;99.90;;;;;;4956934;29;20035;-58
2022/08/21 04:36:27;;;;;;;18.83;11.30;;;13.80;99.90;;;;;;4958003;28;20039;-58
2022/08/21 04:38:53;;;;;;;18.98;10.90;;;14.30;99.90;;;;;;4957941;28;20078;-58
2022/08/21 04:41:19;;;;;;;17.83;11.23;;;14.60;99.90;;;;;;4957691;29;20137;-58
2022/08/21 04:43:45;;;;;;;19.80;11.60;;;14.40;99.90;;;;;;4957740;28;20079;-58
2022/08/21 04:46:11;;;;;;;16.05;10.80;;;14.30;99.90;;;;;;4957640;28;20490;-58
2022/08/21 04:48:36;;;;;;;16.73;10.85;;;14.30;99.90;;;;;;4957842;28;20114;-58
2022/08/21 04:51:29;;;;;;;17.05;10.50;;;14.50;99.90;;;;;;4957541;28;20039;-58
2022/08/21 04:54:18;;;;;;;16.08;10.50;;;14.50;99.90;;;;;;4957598;28;20042;-58
2022/08/21 04:56:47;;;;;;;18.20;9.85;;;14.50;99.90;;;;;;4955738;29;20058;-59
2022/08/21 04:59:20;;;;;;;18.83;10.48;;;14.50;99.90;;;;;;4957488;29;20051;-58
2022/08/21 05:01:46;;;;;;;14.90;9.82;;;;;;;;;;4957452;28;20133;-58
2022/08/21 05:04:17;;;;;;;19.27;10.18;;;14.50;99.90;;;;;;4957210;28;20098;-58
2022/08/21 05:06:45;;;;;;;16.10;10.20;;;14.70;99.90;;;;;;4957422;28;20134;-58
2022/08/21 05:09:14;;;;;;;17.83;9.73;;;14.60;99.90;;;;;;4957386;28;20043;-58
2022/08/21 05:11:42;;;;;;;18.75;9.95;;;14.90;99.90;;;;;;4957298;28;20094;-59
2022/08/21 05:14:09;;;;;;;14.65;9.48;;;14.40;99.90;;;;;;4957503;29;20102;-58
2022/08/21 05:16:35;;;;;;;18.45;9.38;;;14.60;99.90;;;;;;4955813;29;20043;-59
2022/08/21 05:19:01;;;;;;;12.80;9.55;;;15.00;99.90;;;;;;4957024;29;20057;-59
2022/08/21 05:21:26;;;;;;;16.27;8.95;;;14.80;99.90;;;;;;4957243;29;20487;-59
2022/08/21 05:23:53;;;;;;;12.23;7.97;;;16.30;99.90;;;;;;4972538;28;20060;-59
2022/08/21 05:26:18;;;;;;;12.18;8.20;;;17.40;99.90;;;;;;4976297;28;20429;-59
2022/08/21 05:28:46;;;;;;;11.98;7.05;;;18.00;99.90;;;;;;4976310;28;20031;-59
2022/08/21 05:31:12;;;;;;;10.95;6.57;;;18.20;99.90;;;;;;4976204;28;20043;-59
2022/08/21 05:33:37;;;;;;;13.75;7.05;;;19.50;99.90;;;;;;4976341;28;20108;-59
2022/08/21 05:36:03;;;;;;;9.80;6.60;;;21.10;99.90;;;;;;4976331;28;20038;-60
2022/08/21 05:38:29;;;;;;;8.77;6.00;;;20.40;99.90;;;;;;4976209;28;20050;-60
2022/08/21 05:40:57;;;;;;;13.27;6.60;;;21.10;99.90;;;;;;4976145;28;20039;-60
2022/08/21 05:43:22;;;;;;;9.98;5.57;;;21.80;99.90;;;;;;4975312;28;20050;-60
2022/08/21 05:45:48;;;;;;;8.68;5.68;;;22.50;99.90;;;;;;4975676;28;20039;-60
2022/08/21 05:48:20;;;;;;;8.52;5.68;;;23.00;99.90;;;;;;4976109;28;20043;-60
2022/08/21 05:50:48;;;;;;;10.95;5.82;;;23.50;99.90;;;;;;4976048;28;20465;-60
2022/08/21 05:53:15;;;;;;;11.23;5.68;;;24.20;99.90;;;;;;4975808;28;20509;-60
2022/08/21 05:55:42;;;;;;;9.65;5.70;;;24.50;99.90;;;;;;4975694;28;20118;-60
2022/08/21 05:58:11;;;;;;;8.98;5.53;;;25.10;99.50;;;;;;4975604;28;20146;-60
2022/08/21 06:00:36;;;;;;;11.30;5.53;;;26.70;99.90;;;;;;4975845;28;20043;-60
2022/08/21 06:03:03;;;;;;;9.18;5.50;;;26.00;95.30;;;;;;4990734;28;20105;-60
2022/08/21 06:05:29;;;;;;;8.38;5.22;;;26.30;93.20;;;;;;4975656;28;20520;-60
2022/08/21 06:07:54;;;;;;;11.82;5.22;;;27.40;94.10;;;;;;4975525;28;20065;-60
2022/08/21 06:10:20;;;;;;;10.30;5.10;;;26.80;89.10;;;;;;4958221;28;20490;-60
2022/08/21 06:12:46;;;;;;;9.02;4.80;;;27.10;87.50;;;;;;4974315;28;20047;-60
2022/08/21 06:15:13;;;;;;;12.50;5.00;;;27.50;84.10;;;;;;4958394;28;20133;-60
2022/08/21 06:17:38;;;;;;;10.38;4.40;;;27.80;80.80;;;;;;4975555;28;20471;-60
2022/08/21 06:20:05;;;;;;;9.90;4.72;;;28.10;89.50;;;;;;4975191;28;20046;-60
2022/08/21 06:22:32;;;;;;;7.15;4.45;;;28.30;76.20;;;;;;4975323;28;20051;-61
2022/08/21 06:24:58;;;;;;;10.60;4.72;;;28.70;73.70;;;;;;4957888;28;20542;-60
2022/08/21 06:27:23;;;;;;;8.75;4.78;;;29.10;71.80;;;;;;4974972;28;20126;-60
2022/08/21 06:29:50;;;;;;;8.63;4.25;;;29.40;70.10;;;;;;4973915;28;20554;-60
2022/08/21 06:32:16;;;;;;;11.85;4.40;;;30.10;77.40;;;;;;4974246;28;20050;-61
2022/08/21 06:34:42;;;;;;;9.68;4.68;;;30.20;66.50;;;;;;4975257;28;20041;-62
2022/08/21 06:37:08;;;;;;;8.30;4.15;;;30.50;64.70;;;;;;4974957;28;20043;-61
2022/08/21 06:39:35;;;;;;;9.00;4.38;;;30.80;62.90;;;;;;4974919;28;20406;-61
2022/08/21 06:42:03;;;;;;;13.15;4.28;;;31.10;61.90;;;;;;4974108;28;20050;-61
2022/08/21 06:44:30;;;;;;;10.40;4.35;;;31.40;60.70;;;;;;4975076;28;20038;-61
2022/08/21 06:46:56;;;;;;;7.60;4.22;;;31.60;66.00;;;;;;4974924;28;20384;-61
2022/08/21 06:49:22;;;;;;;10.57;4.45;;;31.80;58.90;;;;;;4957542;28;20053;-61
2022/08/21 06:51:47;;;;;;;9.27;4.38;;;32.00;58.10;;;;;;4974699;28;20039;-61
2022/08/21 06:54:13;;;;;;;9.77;4.22;;;32.20;57.30;;;;;;4974923;28;20075;-60
2022/08/21 06:56:40;;;;;;;9.35;4.10;;;32.40;62.90;;;;;;4974546;28;20086;-61
2022/08/21 06:59:06;;;;;;;10.27;3.90;;;32.10;62.70;;;;;;4974553;28;20054;-61
2022/08/21 07:01:32;;;;;;;10.15;3.85;;;32.70;55.20;;;;;;4974744;28;20045;-61
2022/08/21 07:03:58;;;;;;;14.77;3.95;;;32.90;54.60;;;;;;4974641;28;20124;-62
2022/08/21 07:06:24;;;;;;;8.90;3.97;;;33.10;54.00;;;;;;4974373;28;20487;-61
2022/08/21 07:08:52;;;;;;;9.57;4.20;;;33.70;60.50;;;;;;4974417;28;20549;-62
2022/08/21 07:11:22;;;;;;;6.57;3.70;;;33.50;52.60;;;;;;4974353;28;20039;-61
2022/08/21 07:13:52;;;;;;;10.48;3.30;;;33.00;57.20;;;;;;4957396;28;20046;-61
2022/08/21 07:16:19;;;;;;;9.32;3.63;;;33.80;51.20;;;;;;4955553;28;20047;-61
2022/08/21 07:18:45;;;;;;;6.72;3.50;;;33.90;51.00;;;;;;4954034;29;20054;-61
2022/08/21 07:21:12;;;;;;;9.73;3.53;;;33.20;56.80;;;;;;4953984;29;20039;-61
2022/08/21 07:23:42;;;;;;;12.13;3.70;;;34.20;50.10;;;;;;4952848;28;20094;-61
2022/08/21 07:26:08;;;;;;;10.00;3.60;;;34.20;49.90;;;;;;4941763;29;20471;-61
2022/08/21 07:28:34;;;;;;;11.35;3.90;;;34.30;49.50;;;;;;4952692;28;20126;-61
2022/08/21 07:31:01;;;;;;;10.25;3.63;;;34.20;48.90;;;;;;4953273;29;20492;-61
2022/08/21 07:33:28;;;;;;;8.98;3.30;;;33.10;56.10;;;;;;4952647;28;20464;-61
2022/08/21 07:35:54;;;;;;;8.80;3.25;;;34.40;48.90;;;;;;4952062;28;20126;-61
2022/08/21 07:38:21;;;;;;;10.88;3.33;;;34.40;48.60;;;;;;4952647;28;20051;-61
2022/08/21 07:40:48;;;;;;;10.98;3.47;;;34.40;48.50;;;;;;4953466;28;20043;-61
2022/08/21 07:43:16;;;;;;;7.88;3.00;;;34.60;48.40;;;;;;4952748;28;20063;-61
2022/08/21 07:45:42;;;;;;;9.68;3.47;;;34.30;48.40;;;;;;4953167;28;20492;-61
2022/08/21 07:48:11;;;;;;;6.88;2.97;;;34.00;49.40;;;;;;4944657;28;20563;-61
2022/08/21 07:50:38;;;;;;;10.52;3.28;;;33.70;49.10;;;;;;4933796;29;20044;-61
2022/08/21 07:53:04;;;;;;;11.82;3.35;;;33.10;56.80;;;;;;4933890;29;20106;-62
2022/08/21 07:55:29;;;;;;;8.00;2.95;;;32.70;60.10;;;;;;4933713;29;20047;-61
2022/08/21 07:57:55;;;;;;;9.48;3.00;;;32.70;51.80;;;;;;4933217;29;20459;-61
2022/08/21 08:00:23;;;;;;;13.27;3.45;;;32.20;52.70;;;;;;4933684;29;20051;-61
2022/08/21 08:02:53;;;;;;;11.93;3.20;;;32.20;63.50;;;;;;4946661;29;20120;-61
2022/08/21 08:05:26;;;;;;;8.27;3.10;;;30.80;61.30;;;;;;4952492;28;20138;-58
2022/08/21 08:07:53;;;;;;;10.18;3.00;;;31.40;65.20;;;;;;4957153;28;20534;-59
2022/08/21 08:10:19;;;;;;;9.02;2.97;;;30.10;56.70;;;;;;4956990;28;20102;-59
2022/08/21 08:12:46;;;;;;;11.10;3.50;;;29.90;57.60;;;;;;4955969;29;20051;-61
2022/08/21 08:15:17;;;;;;;8.20;2.60;;;29.80;58.30;;;;;;4956847;28;20035;-62
2022/08/21 08:17:43;;;;;;;9.70;2.90;;;29.90;58.00;;;;;;4957191;28;20113;-60
2022/08/21 08:20:11;;;;;;;8.57;2.90;;;29.70;58.10;;;;;;4956819;29;20395;-59
2022/08/21 08:22:39;;;;;;;10.48;3.03;;;29.10;65.10;;;;;;4925541;28;1079715;-59
2022/08/21 08:25:06;;;;;;;9.05;3.13;;;29.30;59.10;;;;;;4958814;28;20058;-59
2022/08/21 08:27:32;;;;;;;7.65;2.85;;;29.10;59.00;;;;;;4977228;28;20043;-59
2022/08/21 08:29:58;;;;;;;7.68;2.88;;;28.60;65.30;;;;;;4977436;28;20038;-59
2022/08/21 08:32:24;;;;;;;12.35;3.17;;;28.80;59.40;;;;;;4977162;28;20044;-59
2022/08/21 08:34:51;;;;;;;14.00;3.47;;;28.70;59.80;;;;;;4977236;28;20041;-59
2022/08/21 08:37:18;;;;;;;11.40;3.25;;;28.50;60.30;;;;;;4977378;28;20081;-59
2022/08/21 08:39:45;;;;;;;9.00;3.38;;;28.40;61.00;;;;;;4977328;28;20047;-59
2022/08/21 08:42:27;;;;;;;9.38;3.05;;;28.50;61.10;;;;;;4977237;28;20050;-59
2022/08/21 08:45:02;;;;;;;9.20;3.10;;;28.60;61.00;;;;;;4977014;28;20054;-59
2022/08/21 08:47:31;;;;;;;9.68;3.08;;;28.40;60.80;;;;;;4959740;28;20049;-59
2022/08/21 08:50:17;;;;;;;10.65;3.40;;;28.30;60.90;;;;;;4976935;28;20573;-59
2022/08/21 08:52:49;;;;;;;8.63;3.33;;;27.90;69.20;;;;;;4977107;28;20050;-59
2022/08/21 08:55:35;;;;;;;9.93;3.40;;;28.20;67.60;;;;;;4976831;28;20502;-59
2022/08/21 08:58:02;;;;;;;9.65;3.42;;;28.00;60.50;;;;;;4959837;28;20050;-59
2022/08/21 09:00:29;;;;;;;10.35;3.28;;;27.90;61.50;;;;;;4976732;28;20499;-59
2022/08/21 09:02:58;;;;;;;8.55;3.20;;;27.60;61.50;;;;;;4976807;28;20117;-59
2022/08/21 09:05:37;;;;;;;9.57;3.55;;;27.20;72.40;;;;;;4976500;28;20058;-59
2022/08/21 09:08:26;;;;;;;8.35;3.10;;;27.40;71.00;;;;;;4976928;28;20380;-59
2022/08/21 09:11:07;;;;;;;12.35;3.15;;;27.40;63.00;;;;;;4976499;28;20074;-60
2022/08/21 09:13:33;;;;;;;8.30;3.15;;;27.50;63.20;;;;;;4976628;28;20081;-60
2022/08/21 09:16:36;;;;;;;10.90;3.20;;;27.40;63.60;;;;;;4958871;28;20046;-58
2022/08/21 09:19:24;;;;;;;6.75;3.08;;;27.50;62.50;;;;;;4958638;28;20035;-58
2022/08/21 09:22:18;;;;;;;9.55;3.00;;;27.40;62.60;;;;;;4975807;28;20107;-59
2022/08/21 09:25:18;;;;;;;8.63;3.00;;;27.40;62.60;;;;;;4973885;28;20051;-59
2022/08/21 09:27:44;;;;;;;10.40;3.15;;;27.40;62.40;;;;;;4976216;28;20499;-60
2022/08/21 09:30:11;;;;;;;21.38;3.45;;;27.20;62.50;;;;;;4976033;28;20039;-59
2022/08/21 09:32:39;;;;;;;7.00;2.70;;;26.80;62.70;;;;;;4976241;28;20506;-59
2022/08/21 09:35:05;;;;;;;10.50;2.88;;;26.70;63.30;;;;;;4976008;28;20039;-58
2022/08/21 09:37:34;;;;;;;9.45;2.72;;;26.80;63.40;;;;;;4976220;28;20042;-59
2022/08/21 09:40:14;;;;;;;8.20;2.80;;;26.90;63.10;;;;;;4976114;28;20035;-60
2022/08/21 09:42:40;;;;;;;6.35;2.50;;;26.70;62.80;;;;;;4976169;28;20077;-61
2022/08/21 09:45:17;;;;;;;7.65;2.63;;;26.80;63.30;;;;;;4975907;28;20066;-60
2022/08/21 09:47:43;;;;;;;10.90;2.40;;;26.70;70.90;;;;;;4976029;28;20047;-61
2022/08/21 09:50:13;;;;;;;8.38;2.80;;;27.00;63.40;;;;;;4958780;28;20046;-60
2022/08/21 09:52:51;;;;;;;9.45;2.78;;;27.00;63.10;;;;;;4975694;28;20035;-60
2022/08/21 09:58:31;;;;;;;11.15;2.60;;;27.30;70.10;;;;;;4975752;28;20129;-60
2022/08/21 10:00:59;;;;;;;;;;;27.30;62.90;;;;;;4976465;28;20039;-60
2022/08/21 10:03:25;;;;;;;6.35;2.60;;;27.40;61.80;;;;;;4975982;28;19918;-60
2022/08/21 10:06:08;;;;;;;8.45;2.65;;;27.40;62.90;;;;;;4975537;28;20070;-59
2022/08/21 10:08:36;;;;;;;8.32;2.92;;;27.50;61.40;;;;;;4975502;28;20043;-59
2022/08/21 10:11:06;;;;;;;7.70;2.90;;;25.40;60.30;;;;;;4958372;28;20034;-59
2022/08/21 10:13:47;;;;;;;9.05;2.95;;;27.40;61.60;;;;;;4958288;28;20439;-60
2022/08/21 10:16:36;;;;;;;9.23;2.90;;;27.20;61.50;;;;;;4975389;28;20038;-58
2022/08/21 10:19:25;;;;;;;9.75;2.75;;;27.10;61.90;;;;;;4958136;28;20053;-58
2022/08/21 10:22:06;;;;;;;9.23;3.10;;;26.60;68.80;;;;;;4975389;28;20045;-58
2022/08/21 10:24:55;;;;;;;8.50;2.83;;;26.90;63.30;;;;;;4975391;28;20399;-58
2022/08/21 10:27:37;;;;;;;10.82;3.22;;;27.00;62.40;;;;;;4975008;28;20047;-59
2022/08/21 10:30:12;;;;;;;8.27;2.72;;;26.70;68.10;;;;;;4975226;28;20082;-59
2022/08/21 10:32:37;;;;;;;;;;;26.90;61.90;;;;;;4975715;28;20034;-59
2022/08/21 10:35:20;;;;;;;8.20;3.03;;;26.90;61.60;;;;;;4975140;28;20417;-59
2022/08/21 10:38:01;;;;;;;9.65;3.10;;;26.90;62.40;;;;;;4974292;28;20395;-59
2022/08/21 10:40:35;;;;;;;7.97;2.90;;;26.80;63.00;;;;;;4975368;28;20062;-58
2022/08/21 10:43:34;;;;;;;8.50;2.70;;;26.80;62.80;;;;;;4975077;28;20047;-59
2022/08/21 10:46:11;;;;;;;8.55;2.75;;;26.90;62.60;;;;;;4975188;28;20138;-59
2022/08/21 10:48:45;;;;;;;10.13;2.38;;;26.90;63.00;;;;;;4975013;28;20041;-59
2022/08/21 10:51:19;;;;;;;8.67;2.57;;;26.80;69.40;;;;;;4974385;28;20039;-59
2022/08/21 10:53:59;;;;;;;8.07;2.47;;;27.00;63.30;;;;;;4973392;28;20034;-61
2022/08/21 10:56:30;;;;;;;8.00;2.50;;;27.00;62.60;;;;;;4974733;28;20117;-58
2022/08/21 10:59:28;;;;;;;8.98;2.65;;;26.90;62.70;;;;;;4974772;28;20105;-59
2022/08/21 11:02:12;;;;;;;7.78;2.65;;;27.00;63.90;;;;;;4971346;28;20449;-59
2022/08/21 11:05:11;;;;;;;9.50;2.88;;;26.90;63.20;;;;;;4974587;28;20038;-59
2022/08/21 11:07:43;;;;;;;8.70;2.97;;;26.90;62.90;;;;;;4931724;28;20062;-60
2022/08/21 11:10:27;;;;;;;10.13;2.80;;;26.80;63.60;;;;;;4973489;28;20043;-59
2022/08/21 11:13:00;;;;;;;8.10;2.88;;;26.80;63.50;;;;;;4972794;28;20459;-60
2022/08/21 11:15:34;;;;;;;6.65;2.50;;;26.80;63.90;;;;;;4972922;28;20407;-60
2022/08/21 11:18:30;;;;;;;7.22;2.35;;;26.80;64.60;;;;;;4972855;28;20065;-59
2022/08/21 11:21:19;;;;;;;8.02;2.50;;;26.90;64.40;;;;;;4972522;28;20055;-59
2022/08/21 11:23:57;;;;;;;11.30;2.40;;;27.00;63.90;;;;;;4972751;28;20130;-60
2022/08/21 11:26:32;;;;;;;6.80;2.63;;;27.20;64.10;;;;;;4973586;28;20051;-59
2022/08/21 11:29:09;;;;;;;13.55;2.65;;;27.30;64.30;;;;;;4955655;28;20047;-60
2022/08/21 11:31:53;;;;;;;9.13;2.60;;;27.40;64.10;;;;;;4973445;28;20033;-59
2022/08/21 11:34:44;;;;;;;7.40;2.50;;;27.40;63.80;;;;;;4956091;28;20105;-59
2022/08/21 11:37:36;;;;;;;6.72;2.35;;;27.30;63.40;;;;;;4973598;28;20170;-60
2022/08/21 11:40:09;;;;;;;7.95;2.78;;;27.10;63.10;;;;;;4971584;28;20055;-60
2022/08/21 11:43:00;;;;;;;11.07;2.53;;;26.90;63.80;;;;;;4977585;28;20430;-59
2022/08/21 11:45:45;;;;;;;11.57;2.67;;;26.80;65.10;;;;;;4961618;28;20071;-60
2022/08/21 11:48:33;;;;;;;8.25;2.20;;;26.80;65.70;;;;;;4976788;28;20047;-60
2022/08/21 11:51:04;;;;;;;7.97;2.10;;;26.90;65.30;;;;;;4977205;28;20426;-60
2022/08/21 11:53:50;;;;;;;8.00;2.05;;;27.10;64.60;;;;;;4976509;28;20089;-60
2022/08/21 11:56:25;;;;;;;7.03;2.10;;;27.20;63.90;;;;;;4977938;28;20070;-59
2022/08/21 11:58:56;;;;;;;11.57;2.60;;;27.20;64.30;;;;;;4977830;28;20122;-60
2022/08/21 12:01:27;;;;;;;8.25;2.35;;;27.30;63.70;;;;;;4977842;28;20070;-60
2022/08/21 12:04:10;;;;;;;9.30;2.50;;;27.30;64.30;;;;;;4978052;28;20065;-60
2022/08/21 12:06:39;;;;;;;10.93;2.40;;;27.50;64.10;;;;;;4977551;28;20051;-59
2022/08/21 12:09:09;;;;;;;8.82;2.10;;;27.50;64.10;;;;;;4977541;28;20041;-60
2022/08/21 12:11:47;;;;;;;10.95;2.40;;;27.50;64.00;;;;;;4977660;28;20085;-58
2022/08/21 12:14:16;;;;;;;6.78;2.03;;;27.80;69.40;;;;;;4977575;28;20491;-58
2022/08/21 12:16:47;;;;;;;7.30;2.22;;;27.70;63.70;;;;;;4977370;28;20479;-58
2022/08/21 12:19:32;;;;;;;6.63;2.30;;;27.60;63.90;;;;;;4977524;28;20058;-58
2022/08/21 12:22:04;;;;;;;8.15;2.53;;;27.50;64.00;;;;;;4977594;28;20044;-58
2022/08/21 12:24:37;;;;;;;7.18;2.42;;;27.60;63.20;;;;;;4977656;28;20047;-58
2022/08/21 12:27:21;;;;;;;8.10;2.17;;;27.70;64.00;;;;;;4977385;28;20042;-58
2022/08/21 12:29:56;;;;;;;5.20;1.70;;;27.80;64.00;;;;;;4977331;28;20061;-58
2022/08/21 12:32:42;;;;;;;6.38;1.95;;;28.00;62.90;;;;;;4976031;28;20118;-59
2022/08/21 12:35:18;;;;;;;7.70;2.33;;;28.20;61.40;;;;;;4977232;28;20039;-58
2022/08/21 12:38:08;;;;;;;6.72;2.67;;;28.40;61.30;;;;;;4977721;28;20439;-59
2022/08/21 12:40:52;;;;;;;6.38;2.40;;;28.40;60.90;;;;;;4976418;28;20050;-59
2022/08/21 12:43:24;;;;;;;7.60;2.10;;;28.50;61.20;;;;;;4977369;28;20039;-58
2022/08/21 12:45:50;;;;;;;6.88;2.20;;;28.50;61.60;;;;;;4976074;28;20126;-58
2022/08/21 12:48:31;;;;;;;8.27;2.30;;;28.50;60.70;;;;;;4977088;28;20043;-58
2022/08/21 12:51:22;;;;;;;9.80;2.35;;;28.60;60.60;;;;;;4976552;28;20043;-59
2022/08/21 12:53:49;;;;;;;6.60;2.20;;;28.60;60.00;;;;;;4977109;28;20043;-59
2022/08/21 12:56:19;;;;;;;7.88;2.20;;;28.30;60.50;;;;;;4977032;28;20043;-58
2022/08/21 12:58:48;;;;;;;10.63;2.60;;;28.20;60.70;;;;;;4976850;28;20086;-58
2022/08/21 13:01:17;;;;;;;6.93;2.00;;;28.30;61.00;;;;;;4976812;28;20158;-58
2022/08/21 13:03:44;;;;;;;8.05;2.20;;;28.40;59.80;;;;;;4976925;28;20511;-58